CheckWX is a tool to help pilots better visualize weather data.  It is not intended as a substitute for an official pre-flight weather briefing.

07:34:53 UTC

KMCC METAR
Mc Clellan Airfield Airport
Sacramento, California, USA
Current

20 mins ago

KMCC 220715Z AUTO 00000KT 10SM CLR 11/04 A2995 RMK AO2
Observed
Feb-22 @ 07:15 UTC
Visibility
10 SM
Flight Rules
VFR
Cloud Levels
  • Clear skies
Temperature
11°C / 52°F
Dewpoint
C / 39°F
Humidity
62%
Altimeter
29.95" Hg
Pressure
1014.22 hPa
Previous

40 mins ago

KMCC 220655Z AUTO 00000KT 10SM CLR 11/04 A2995 RMK AO2
Observed
Feb-22 @ 06:55 UTC
Visibility
10 SM
Flight Rules
VFR
Cloud Levels
  • Clear skies
Temperature
11°C / 52°F
Dewpoint
C / 39°F
Humidity
62%
Altimeter
29.95" Hg
Pressure
1014.22 hPa
Previous

60 mins ago

KMCC 220635Z AUTO 34008KT 10SM CLR 10/05 A2995 RMK AO2
Observed
Feb-22 @ 06:35 UTC
Wind
  • 340° at 8 KTS
Visibility
10 SM
Flight Rules
VFR
Cloud Levels
  • Clear skies
Temperature
10°C / 50°F
Dewpoint
C / 41°F
Humidity
71%
Altimeter
29.95" Hg
Pressure
1014.22 hPa